Time;durP1;ratioP1;P1;durP2;ratioP2;P2;SDS_P1;SDS_P2;PMS_P1;PMS_P2;Temp;Humidity;BMP_temperature;BMP_pressure;BME280_temperature;BME280_humidity;BME280_pressure;Samples;Min_cycle;Max_cycle;Signal;HPM_P1;HPM_P2
2023/01/02 00:01:10;;;;;;;;;;;20.80;55.20;;;;;;6273887;22;43435;-68
2023/01/02 00:03:38;;;;;;;;;;;20.80;55.30;;;;;;6273291;22;43756;-68
2023/01/02 00:06:06;;;;;;;;;;;20.70;55.20;;;;;;6273258;22;43382;-69
2023/01/02 00:08:33;;;;;;;;;;;20.70;55.30;;;;;;6274217;22;43354;-68
2023/01/02 00:11:01;;;;;;;;;;;20.70;55.20;;;;;;6273656;22;43458;-68
2023/01/02 00:13:28;;;;;;;;;;;20.70;55.30;;;;;;6245420;22;44084;-68
2023/01/02 00:15:55;;;;;;;;;;;20.70;55.30;;;;;;6246592;22;43538;-68
2023/01/02 00:18:23;;;;;;;;;;;20.70;55.30;;;;;;6273595;22;43467;-68
2023/01/02 00:20:50;;;;;;;;;;;20.60;55.30;;;;;;6272919;22;43433;-68
2023/01/02 00:23:17;;;;;;;;;;;20.60;55.30;;;;;;6273171;22;43750;-68
2023/01/02 00:25:46;;;;;;;;;;;20.60;55.40;;;;;;6273824;22;43487;-69
2023/01/02 00:28:14;;;;;;;;;;;20.60;55.40;;;;;;6272770;22;43388;-68
2023/01/02 00:30:41;;;;;;;;;;;20.60;55.40;;;;;;6220989;22;43598;-69
2023/01/02 00:33:08;;;;;;;;;;;20.60;55.40;;;;;;6245956;22;44714;-68
2023/01/02 00:35:36;;;;;;;;;;;20.60;55.40;;;;;;6273738;22;43411;-68
2023/01/02 00:38:04;;;;;;;;;;;20.60;55.40;;;;;;6273857;22;43395;-68
2023/01/02 00:40:31;;;;;;;;;;;20.60;55.40;;;;;;6272593;22;43462;-68
2023/01/02 00:42:59;;;;;;;;;;;20.50;55.40;;;;;;6273248;22;43884;-68
2023/01/02 00:45:26;;;;;;;;;;;20.60;55.40;;;;;;6273895;22;43546;-68
2023/01/02 00:47:53;;;;;;;;;;;20.50;55.40;;;;;;6272922;22;43354;-68
2023/01/02 00:50:21;;;;;;;;;;;20.50;55.50;;;;;;6273671;22;43887;-68
2023/01/02 00:52:48;;;;;;;;;;;20.50;55.50;;;;;;6272975;22;43815;-68
2023/01/02 00:55:15;;;;;;;;;;;20.50;55.50;;;;;;6272464;22;43400;-68
2023/01/02 00:57:43;;;;;;;;;;;20.50;55.50;;;;;;6270316;22;43367;-68
2023/01/02 01:00:10;;;;;;;;;;;20.50;55.50;;;;;;6273332;22;43482;-68
2023/01/02 01:02:38;;;;;;;;;;;20.40;55.50;;;;;;6272422;22;43756;-68
2023/01/02 01:05:05;;;;;;;;;;;20.40;55.50;;;;;;6272607;22;43522;-68
2023/01/02 01:07:33;;;;;;;;;;;20.40;55.40;;;;;;6245894;22;43450;-68
2023/01/02 01:10:00;;;;;;;;;;;20.40;55.60;;;;;;6245581;22;43398;-68
2023/01/02 01:12:28;;;;;;;;;;;20.40;55.50;;;;;;6273254;22;43826;-68
2023/01/02 01:14:55;;;;;;;;;;;20.40;55.50;;;;;;6273242;22;43390;-68
2023/01/02 01:17:23;;;;;;;;;;;20.40;55.60;;;;;;6272661;22;43469;-68
2023/01/02 01:19:50;;;;;;;;;;;20.40;56.20;;;;;;6273716;22;43383;-68
2023/01/02 01:22:17;;;;;;;;;;;20.30;55.50;;;;;;6273126;22;43586;-68
2023/01/02 01:24:45;;;;;;;;;;;20.30;55.60;;;;;;6272691;22;43394;-68
2023/01/02 01:27:12;;;;;;;;;;;20.30;55.50;;;;;;6273469;22;43414;-68
2023/01/02 01:29:39;;;;;;;;;;;20.30;55.60;;;;;;6273210;22;43395;-69
2023/01/02 01:32:06;;;;;;;;;;;20.30;55.60;;;;;;6274290;22;44018;-68
2023/01/02 01:34:34;;;;;;;;;;;20.30;55.60;;;;;;6274250;22;43422;-68
2023/01/02 01:37:01;;;;;;;;;;;20.30;55.60;;;;;;6246409;22;43414;-68
2023/01/02 01:39:28;;;;;;;;;;;20.30;55.60;;;;;;6274754;22;43507;-68
2023/01/02 01:41:58;;;;;;;;;;;20.30;55.60;;;;;;6274736;22;43944;-68
2023/01/02 01:44:40;;;;;;;;;;;20.30;55.60;;;;;;6273924;22;43391;-68
2023/01/02 01:47:14;;;;;;;;;;;20.20;55.60;;;;;;6274874;22;43325;-68
2023/01/02 01:49:42;;;;;;;;;;;20.20;55.60;;;;;;6274828;22;43380;-68
2023/01/02 01:52:12;;;;;;;;;;;20.20;55.70;;;;;;6273380;22;44321;-68
2023/01/02 01:54:45;;;;;;;;;;;20.20;55.70;;;;;;6274257;22;43363;-68
2023/01/02 01:57:31;;;;;;;;;;;20.20;55.70;;;;;;6274743;22;43399;-68
2023/01/02 02:00:00;;;;;;;;;;;20.20;55.70;;;;;;6274561;22;43370;-68
2023/01/02 02:02:29;;;;;;;;;;;20.20;55.60;;;;;;6274465;22;43905;-68
2023/01/02 02:04:59;;;;;;;;;;;20.20;55.60;;;;;;6273588;22;43359;-68
2023/01/02 02:07:26;;;;;;;;;;;20.20;55.70;;;;;;6247672;22;43334;-68
2023/01/02 02:10:12;;;;;;;;;;;20.20;55.70;;;;;;6274556;22;43475;-68
2023/01/02 02:12:39;;;;;;;;;;;20.20;55.70;;;;;;6271181;22;44129;-68
2023/01/02 02:15:08;;;;;;;;;;;20.20;55.60;;;;;;6274116;22;43482;-68
2023/01/02 02:17:36;;;;;;;;;;;20.20;55.70;;;;;;6274244;22;43467;-68
2023/01/02 02:20:09;;;;;;;;;;;20.20;55.60;;;;;;6273872;22;43593;-68
2023/01/02 02:22:55;;;;;;;;;;;20.20;55.70;;;;;;6274181;22;43691;-68
2023/01/02 02:25:28;;;;;;;;;;;20.10;55.60;;;;;;6273612;22;43475;-68
2023/01/02 02:27:58;;;;;;;;;;;20.10;55.70;;;;;;6247028;22;43382;-68
2023/01/02 02:30:31;;;;;;;;;;;20.10;55.70;;;;;;6274733;22;43989;-68
2023/01/02 02:32:59;;;;;;;;;;;20.10;55.70;;;;;;6221106;22;44122;-68
2023/01/02 02:35:35;;;;;;;;;;;20.10;55.70;;;;;;6274442;22;43443;-68
2023/01/02 02:38:20;;;;;;;;;;;20.10;55.70;;;;;;6274935;22;44027;-68
2023/01/02 02:41:07;;;;;;;;;;;20.10;55.70;;;;;;6273176;22;43383;-68
2023/01/02 02:44:10;;;;;;;;;;;20.10;55.80;;;;;;6273813;22;43754;-68
2023/01/02 02:46:51;;;;;;;;;;;20.00;55.70;;;;;;6149381;23;43725;-68
2023/01/02 02:49:36;;;;;;;;;;;20.00;55.70;;;;;;6261451;22;43406;-68
2023/01/02 02:52:14;;;;;;;;;;;20.00;55.70;;;;;;6274422;22;43463;-68
2023/01/02 02:54:47;;;;;;;;;;;20.00;55.70;;;;;;6273310;22;43737;-68
2023/01/02 02:57:15;;;;;;;;;;;20.00;55.80;;;;;;6274192;22;43456;-68
2023/01/02 02:59:42;;;;;;;;;;;20.00;55.80;;;;;;6246847;22;43388;-68
2023/01/02 03:02:13;;;;;;;;;;;20.00;55.70;;;;;;6273357;22;43511;-68
2023/01/02 03:04:43;;;;;;;;;;;20.00;55.80;;;;;;6273978;22;43990;-68
2023/01/02 03:07:13;;;;;;;;;;;20.00;55.80;;;;;;6273595;22;43416;-68
2023/01/02 03:09:49;;;;;;;;;;;20.00;55.80;;;;;;6273156;22;43439;-68
2023/01/02 03:12:22;;;;;;;;;;;19.90;55.80;;;;;;6274660;22;43614;-68
2023/01/02 03:15:00;;;;;;;;;;;20.00;55.80;;;;;;6273942;22;43745;-68
2023/01/02 03:17:27;;;;;;;;;;;19.90;55.80;;;;;;6274573;22;43659;-68
2023/01/02 03:19:57;;;;;;;;;;;19.90;55.80;;;;;;6274265;22;43352;-68
2023/01/02 03:22:30;;;;;;;;;;;19.90;55.80;;;;;;6220845;22;43491;-68
2023/01/02 03:24:57;;;;;;;;;;;19.90;55.80;;;;;;6274857;22;44352;-68
2023/01/02 03:27:31;;;;;;;;;;;19.90;55.80;;;;;;6274442;22;43423;-68
2023/01/02 03:30:01;;;;;;;;;;;19.90;55.80;;;;;;6273775;22;43382;-68
2023/01/02 03:32:33;;;;;;;;;;;19.90;55.80;;;;;;6274285;22;43447;-68
2023/01/02 03:35:03;;;;;;;;;;;19.90;55.80;;;;;;6245824;22;46054;-68
2023/01/02 03:37:32;;;;;;;;;;;19.90;55.80;;;;;;6272997;22;43460;-68
2023/01/02 03:40:02;;;;;;;;;;;19.90;55.80;;;;;;6273885;22;43387;-68
2023/01/02 03:42:33;;;;;;;;;;;19.90;55.90;;;;;;6274469;22;43473;-68
2023/01/02 03:45:12;;;;;;;;;;;19.90;55.80;;;;;;6272741;22;44890;-68
2023/01/02 03:47:58;;;;;;;;;;;19.80;55.80;;;;;;6274098;22;43458;-68
2023/01/02 03:50:40;;;;;;;;;;;19.80;56.60;;;;;;6273951;22;43363;-68
2023/01/02 03:53:07;;;;;;;;;;;19.80;55.90;;;;;;6273586;22;43475;-68
2023/01/02 03:55:37;;;;;;;;;;;19.90;56.00;;;;;;6273797;22;43928;-68
2023/01/02 03:58:04;;;;;;;;;;;19.80;56.00;;;;;;6272761;22;43389;-68
2023/01/02 04:00:41;;;;;;;;;;;19.80;56.00;;;;;;6273745;22;43479;-68
2023/01/02 04:03:11;;;;;;;;;;;19.80;55.90;;;;;;6273863;22;43428;-68
2023/01/02 04:05:44;;;;;;;;;;;19.80;56.00;;;;;;6246196;22;43879;-68
2023/01/02 04:08:27;;;;;;;;;;;19.80;56.00;;;;;;6274296;22;43463;-68
2023/01/02 04:10:56;;;;;;;;;;;19.80;55.90;;;;;;6274413;22;43876;-68
2023/01/02 04:13:31;;;;;;;;;;;19.80;56.00;;;;;;6273572;22;44095;-68
2023/01/02 04:16:01;;;;;;;;;;;19.80;56.00;;;;;;6221310;22;45653;-68
2023/01/02 04:18:30;;;;;;;;;;;19.80;56.00;;;;;;6272865;22;44062;-68
2023/01/02 04:21:04;;;;;;;;;;;19.80;56.00;;;;;;6246958;22;43455;-68
2023/01/02 04:23:35;;;;;;;;;;;19.80;56.00;;;;;;6273998;22;43481;-68
2023/01/02 04:26:11;;;;;;;;;;;19.80;56.00;;;;;;6272563;22;43766;-68
2023/01/02 04:28:38;;;;;;;;;;;19.70;56.00;;;;;;6273915;22;43389;-68
2023/01/02 04:31:06;;;;;;;;;;;19.80;56.00;;;;;;6246795;22;43456;-68
2023/01/02 04:33:37;;;;;;;;;;;19.80;56.00;;;;;;6220174;22;43555;-68
2023/01/02 04:36:12;;;;;;;;;;;19.70;56.00;;;;;;6274173;22;43775;-68
2023/01/02 04:38:40;;;;;;;;;;;19.70;56.00;;;;;;6246734;22;43360;-68
2023/01/02 04:41:08;;;;;;;;;;;19.70;56.00;;;;;;6272418;22;43364;-68
2023/01/02 04:43:36;;;;;;;;;;;19.70;55.90;;;;;;6273422;22;43980;-68
2023/01/02 04:46:03;;;;;;;;;;;19.70;56.00;;;;;;6273551;22;43992;-68
2023/01/02 04:48:30;;;;;;;;;;;19.70;56.00;;;;;;6271222;22;43431;-68
2023/01/02 04:50:58;;;;;;;;;;;19.70;56.00;;;;;;6272488;22;43353;-68
2023/01/02 04:53:25;;;;;;;;;;;19.70;56.10;;;;;;6273313;22;43442;-68
2023/01/02 04:55:56;;;;;;;;;;;19.70;56.00;;;;;;6245976;22;43761;-68
2023/01/02 04:58:25;;;;;;;;;;;19.70;56.00;;;;;;6246159;22;43403;-68
2023/01/02 05:00:53;;;;;;;;;;;19.70;56.00;;;;;;6272669;22;43376;-68
2023/01/02 05:03:20;;;;;;;;;;;19.70;56.10;;;;;;6273853;22;43458;-68
2023/01/02 05:05:48;;;;;;;;;;;19.70;56.10;;;;;;6274503;22;43870;-68
2023/01/02 05:08:15;;;;;;;;;;;19.60;56.10;;;;;;6273095;22;43468;-68
2023/01/02 05:10:42;;;;;;;;;;;19.70;56.10;;;;;;6274866;22;43397;-68
2023/01/02 05:13:10;;;;;;;;;;;19.70;56.10;;;;;;6274540;22;43423;-68
2023/01/02 05:15:37;;;;;;;;;;;19.60;56.00;;;;;;6273456;22;43801;-69
2023/01/02 05:18:05;;;;;;;;;;;19.70;56.10;;;;;;6274872;22;43877;-69
2023/01/02 05:20:32;;;;;;;;;;;19.60;56.10;;;;;;6274731;22;43445;-69
2023/01/02 05:25:46;;;;;;;;;;;19.60;56.10;;;;;;6247107;22;44007;-69
2023/01/02 05:28:14;;;;;;;;;;;19.60;56.10;;;;;;6246953;22;43449;-69
2023/01/02 05:30:41;;;;;;;;;;;19.60;56.10;;;;;;6273925;22;43390;-68
2023/01/02 05:33:08;;;;;;;;;;;19.60;56.10;;;;;;6274089;22;43496;-68
2023/01/02 05:35:36;;;;;;;;;;;19.60;56.10;;;;;;6274039;22;43791;-68
2023/01/02 05:38:03;;;;;;;;;;;19.60;56.10;;;;;;6274415;22;43381;-68
2023/01/02 05:40:30;;;;;;;;;;;19.60;56.10;;;;;;6274364;22;43418;-68
2023/01/02 05:42:58;;;;;;;;;;;19.60;56.20;;;;;;6273807;22;44066;-68
2023/01/02 05:45:25;;;;;;;;;;;19.60;56.10;;;;;;6274855;22;43858;-69
2023/01/02 05:47:53;;;;;;;;;;;19.60;56.10;;;;;;6274735;22;43382;-68
2023/01/02 05:50:20;;;;;;;;;;;19.60;56.10;;;;;;6273672;22;43462;-68
2023/01/02 05:52:48;;;;;;;;;;;19.60;56.20;;;;;;6274456;22;43479;-69
2023/01/02 05:55:16;;;;;;;;;;;19.60;56.20;;;;;;6274369;22;43587;-69
2023/01/02 05:57:43;;;;;;;;;;;19.60;56.20;;;;;;6273808;22;43408;-68
2023/01/02 06:00:11;;;;;;;;;;;19.50;56.10;;;;;;6274329;22;43390;-68
2023/01/02 06:02:41;;;;;;;;;;;19.60;56.20;;;;;;6272814;22;43444;-68
2023/01/02 06:05:14;;;;;;;;;;;19.60;56.20;;;;;;6273148;22;44038;-68
2023/01/02 06:07:41;;;;;;;;;;;19.60;56.20;;;;;;6246710;22;43344;-68
2023/01/02 06:10:09;;;;;;;;;;;19.60;56.20;;;;;;6274329;22;43462;-68
2023/01/02 06:12:36;;;;;;;;;;;19.60;56.10;;;;;;6273517;22;43887;-69
2023/01/02 06:15:04;;;;;;;;;;;19.60;56.10;;;;;;6273990;22;44009;-69
2023/01/02 06:17:32;;;;;;;;;;;19.60;56.10;;;;;;6274207;22;43440;-68
2023/01/02 06:19:59;;;;;;;;;;;19.60;56.10;;;;;;6246240;22;43463;-68
2023/01/02 06:22:27;;;;;;;;;;;19.60;56.10;;;;;;6247015;22;43502;-68
2023/01/02 06:24:54;;;;;;;;;;;19.60;56.20;;;;;;6273181;22;43668;-68
2023/01/02 06:27:21;;;;;;;;;;;19.60;56.20;;;;;;6246377;22;44642;-69
2023/01/02 06:29:48;;;;;;;;;;;19.60;56.20;;;;;;6247401;22;43753;-69
2023/01/02 06:32:16;;;;;;;;;;;19.60;56.20;;;;;;6273740;22;43514;-69
2023/01/02 06:34:44;;;;;;;;;;;19.60;56.20;;;;;;6273760;22;44020;-69
2023/01/02 06:37:11;;;;;;;;;;;19.60;56.20;;;;;;6274185;22;43354;-69
2023/01/02 06:39:38;;;;;;;;;;;19.60;56.30;;;;;;6246082;22;43381;-68
2023/01/02 06:42:06;;;;;;;;;;;19.60;56.30;;;;;;6274069;22;43774;-69
2023/01/02 06:44:33;;;;;;;;;;;19.50;56.20;;;;;;6273950;22;44663;-69
2023/01/02 06:47:00;;;;;;;;;;;19.60;56.30;;;;;;6273069;22;43443;-69
2023/01/02 06:49:28;;;;;;;;;;;19.50;56.10;;;;;;6274777;22;43360;-69
2023/01/02 06:51:56;;;;;;;;;;;19.50;56.10;;;;;;6274533;22;43406;-69
2023/01/02 06:54:23;;;;;;;;;;;19.50;56.10;;;;;;6272982;22;43773;-69
2023/01/02 06:56:51;;;;;;;;;;;19.50;56.10;;;;;;6273903;22;43368;-69
2023/01/02 06:59:18;;;;;;;;;;;19.50;56.10;;;;;;6274154;22;43384;-69
2023/01/02 07:01:45;;;;;;;;;;;19.60;56.20;;;;;;6273499;22;43466;-68
2023/01/02 07:04:16;;;;;;;;;;;19.50;56.10;;;;;;6274271;22;44917;-69
2023/01/02 07:06:43;;;;;;;;;;;19.50;56.10;;;;;;6273522;22;43353;-68
2023/01/02 07:09:10;;;;;;;;;;;19.50;56.10;;;;;;6245811;22;43458;-68
2023/01/02 07:11:38;;;;;;;;;;;19.50;56.20;;;;;;6246232;22;43554;-71
2023/01/02 07:14:05;;;;;;;;;;;19.50;56.30;;;;;;6273124;22;44027;-72
2023/01/02 07:16:32;;;;;;;;;;;19.50;56.30;;;;;;6246090;22;43475;-70
2023/01/02 07:19:00;;;;;;;;;;;19.50;56.30;;;;;;6246749;22;43419;-71
2023/01/02 07:21:28;;;;;;;;;;;19.50;56.30;;;;;;6273457;22;43438;-71
2023/01/02 07:23:55;;;;;;;;;;;19.50;56.30;;;;;;6273312;22;44099;-71
2023/01/02 07:26:22;;;;;;;;;;;19.50;56.20;;;;;;6245586;22;43455;-70
2023/01/02 07:28:50;;;;;;;;;;;19.50;56.20;;;;;;6245679;22;43430;-70
2023/01/02 07:31:18;;;;;;;;;;;19.40;56.10;;;;;;6246071;22;43597;-70
2023/01/02 07:33:46;;;;;;;;;;;19.50;56.10;;;;;;6273025;22;44258;-71
2023/01/02 07:36:15;;;;;;;;;;;19.50;56.10;;;;;;6243920;22;43447;-70
2023/01/02 07:38:42;;;;;;;;;;;19.40;56.10;;;;;;6245302;22;43913;-70
2023/01/02 07:41:17;;;;;;;;;;;19.40;56.10;;;;;;6273258;22;43526;-71
2023/01/02 07:43:45;;;;;;;;;;;19.40;56.10;;;;;;6272606;22;43833;-70
2023/01/02 07:46:16;;;;;;;;;;;19.40;56.10;;;;;;6269141;22;44019;-69
2023/01/02 07:48:44;;;;;;;;;;;19.40;56.10;;;;;;6272343;22;43438;-71
2023/01/02 07:51:11;;;;;;;;;;;19.40;56.10;;;;;;6271971;22;43403;-71
2023/01/02 07:53:40;;;;;;;;;;;19.40;56.10;;;;;;6245051;22;43941;-69
2023/01/02 07:56:08;;;;;;;;;;;19.40;56.20;;;;;;6245811;22;43628;-70
2023/01/02 07:58:35;;;;;;;;;;;19.40;56.20;;;;;;6272014;22;43447;-69
2023/01/02 08:01:07;;;;;;;;;;;19.40;56.20;;;;;;6272693;22;43407;-68
2023/01/02 08:03:34;;;;;;;;;;;19.40;56.20;;;;;;6272213;22;43970;-70
2023/01/02 08:06:02;;;;;;;;;;;19.40;56.20;;;;;;6273195;22;43407;-70
2023/01/02 08:08:30;;;;;;;;;;;19.40;56.20;;;;;;6245335;22;43356;-69
2023/01/02 08:10:57;;;;;;;;;;;19.40;56.10;;;;;;6271880;22;43407;-70
2023/01/02 08:13:24;;;;;;;;;;;19.40;56.20;;;;;;6244497;22;43853;-69
2023/01/02 08:15:52;;;;;;;;;;;19.40;56.20;;;;;;6273664;22;43446;-70
2023/01/02 08:18:19;;;;;;;;;;;19.40;56.20;;;;;;6270237;22;43392;-69
2023/01/02 08:20:46;;;;;;;;;;;19.40;56.10;;;;;;6271430;22;43446;-69
2023/01/02 08:23:13;;;;;;;;;;;19.40;56.10;;;;;;6272482;22;43888;-68
2023/01/02 08:25:42;;;;;;;;;;;19.40;56.10;;;;;;6272845;22;43402;-67
2023/01/02 08:28:09;;;;;;;;;;;19.30;56.10;;;;;;6273236;22;43412;-67
2023/01/02 08:30:38;;;;;;;;;;;19.40;56.20;;;;;;6272779;22;43487;-67
2023/01/02 08:33:06;;;;;;;;;;;19.40;56.10;;;;;;6271900;22;43743;-67
2023/01/02 08:35:33;;;;;;;;;;;19.40;55.90;;;;;;6272513;22;43329;-65
2023/01/02 08:38:05;;;;;;;;;;;19.40;56.00;;;;;;6246564;22;43378;-65
2023/01/02 08:40:32;;;;;;;;;;;19.40;56.10;;;;;;6272645;22;43411;-66
2023/01/02 08:42:59;;;;;;;;;;;19.30;56.00;;;;;;6272924;22;43695;-65
2023/01/02 08:45:27;;;;;;;;;;;19.30;56.10;;;;;;6272884;22;43948;-65
2023/01/02 08:47:54;;;;;;;;;;;19.30;56.10;;;;;;6272529;22;43405;-65
2023/01/02 08:50:21;;;;;;;;;;;19.30;56.10;;;;;;6272862;22;43518;-67
2023/01/02 08:52:50;;;;;;;;;;;19.30;56.30;;;;;;6271222;22;43769;-63
2023/01/02 08:55:17;;;;;;;;;;;19.20;56.30;;;;;;6272833;22;43471;-63
2023/01/02 08:57:44;;;;;;;;;;;19.20;56.20;;;;;;6272558;22;43393;-64
2023/01/02 09:00:12;;;;;;;;;;;19.20;57.50;;;;;;6272705;22;43431;-63
2023/01/02 09:02:39;;;;;;;;;;;19.20;56.40;;;;;;6273104;22;43723;-65
2023/01/02 09:05:07;;;;;;;;;;;19.20;56.40;;;;;;6273040;22;43450;-64
2023/01/02 09:07:35;;;;;;;;;;;19.30;56.50;;;;;;6272127;22;44034;-63
2023/01/02 09:10:02;;;;;;;;;;;19.30;56.40;;;;;;6272982;22;43467;-64
2023/01/02 09:12:29;;;;;;;;;;;19.40;56.30;;;;;;6273551;22;44213;-63
2023/01/02 09:14:57;;;;;;;;;;;19.60;56.30;;;;;;6272412;22;43486;-62
2023/01/02 09:17:24;;;;;;;;;;;19.70;56.10;;;;;;6272881;22;43441;-65
2023/01/02 09:19:51;;;;;;;;;;;19.80;55.90;;;;;;6273099;22;43403;-62
2023/01/02 09:22:19;;;;;;;;;;;20.00;55.80;;;;;;6244265;22;44110;-64
2023/01/02 09:24:46;;;;;;;;;;;20.10;55.70;;;;;;6273052;22;43449;-67
2023/01/02 09:27:13;;;;;;;;;;;20.20;55.60;;;;;;6273494;22;43479;-64
2023/01/02 09:29:41;;;;;;;;;;;20.30;55.40;;;;;;6271801;22;43945;-64
2023/01/02 09:32:08;;;;;;;;;;;20.50;55.10;;;;;;6273042;22;44721;-65
2023/01/02 09:34:35;;;;;;;;;;;20.60;55.00;;;;;;6272988;22;43370;-65
2023/01/02 09:37:03;;;;;;;;;;;20.80;54.90;;;;;;6271582;22;43491;-65
2023/01/02 09:39:30;;;;;;;;;;;20.80;54.70;;;;;;6273020;22;43497;-65
2023/01/02 09:41:59;;;;;;;;;;;20.90;54.70;;;;;;6272446;22;44968;-65
2023/01/02 09:44:38;;;;;;;;;;;21.00;54.40;;;;;;6273429;22;43439;-65
2023/01/02 09:47:09;;;;;;;;;;;21.00;54.30;;;;;;6273104;22;43306;-65
2023/01/02 09:49:44;;;;;;;;;;;21.10;54.30;;;;;;6244744;22;43477;-65
2023/01/02 09:52:16;;;;;;;;;;;21.10;54.30;;;;;;6274330;22;44681;-65
2023/01/02 09:54:44;;;;;;;;;;;21.10;54.20;;;;;;6274445;22;43351;-65
2023/01/02 09:57:23;;;;;;;;;;;21.10;54.20;;;;;;6273467;22;43414;-65
2023/01/02 10:00:08;;;;;;;;;;;21.10;54.20;;;;;;6274389;22;43391;-65
2023/01/02 10:02:39;;;;;;;;;;;21.10;54.20;;;;;;6274336;22;44625;-65
2023/01/02 10:05:12;;;;;;;;;;;21.10;54.20;;;;;;6273547;22;43416;-65
2023/01/02 10:07:42;;;;;;;;;;;21.00;54.20;;;;;;6274436;22;43359;-65
2023/01/02 10:10:12;;;;;;;;;;;21.00;54.20;;;;;;6273626;22;43580;-65
2023/01/02 10:12:49;;;;;;;;;;;21.00;54.20;;;;;;6273861;22;43761;-63
2023/01/02 10:15:20;;;;;;;;;;;21.00;54.20;;;;;;6273693;22;43508;-64
2023/01/02 10:17:50;;;;;;;;;;;21.00;54.30;;;;;;6273354;22;43910;-65
2023/01/02 10:20:26;;;;;;;;;;;21.00;54.20;;;;;;6270815;22;43566;-64
2023/01/02 10:22:57;;;;;;;;;;;21.00;54.40;;;;;;6245375;22;43850;-66
2023/01/02 10:25:38;;;;;;;;;;;21.00;54.50;;;;;;6272542;22;43415;-68
2023/01/02 10:28:12;;;;;;;;;;;21.10;54.40;;;;;;6273541;22;43451;-68
2023/01/02 10:30:41;;;;;;;;;;;21.10;54.50;;;;;;6273704;22;43522;-64
2023/01/02 10:33:18;;;;;;;;;;;21.10;54.40;;;;;;6272163;22;44729;-66
2023/01/02 10:36:01;;;;;;;;;;;21.10;54.30;;;;;;6272806;22;43490;-65
2023/01/02 10:38:34;;;;;;;;;;;21.10;54.30;;;;;;6273252;22;43367;-63
2023/01/02 10:41:01;;;;;;;;;;;21.10;54.40;;;;;;6273748;22;43402;-63
2023/01/02 10:43:31;;;;;;;;;;;21.10;54.50;;;;;;6273057;22;44645;-63
2023/01/02 10:45:59;;;;;;;;;;;21.00;54.60;;;;;;6245839;22;43554;-64
2023/01/02 10:48:29;;;;;;;;;;;21.10;54.40;;;;;;6271702;22;43448;-65
2023/01/02 10:50:59;;;;;;;;;;;21.00;54.40;;;;;;6271186;22;43544;-64
2023/01/02 10:53:30;;;;;;;;;;;21.10;54.40;;;;;;6271209;22;43710;-64
2023/01/02 10:56:06;;;;;;;;;;;21.00;54.40;;;;;;6244097;22;45716;-64
2023/01/02 10:58:33;;;;;;;;;;;21.00;54.40;;;;;;6272636;22;43379;-64
2023/01/02 11:01:04;;;;;;;;;;;21.00;54.30;;;;;;6270800;22;43902;-64
2023/01/02 11:03:31;;;;;;;;;;;21.00;54.30;;;;;;6272470;22;44066;-64
2023/01/02 11:05:59;;;;;;;;;;;21.00;54.40;;;;;;6272884;22;43412;-64
2023/01/02 11:08:57;;;;;;;;;;;21.00;54.40;;;;;;6272904;22;43355;-66
2023/01/02 11:11:25;;;;;;;;;;;21.00;54.30;;;;;;6268629;22;43347;-62
2023/01/02 11:13:56;;;;;;;;;;;21.00;54.40;;;;;;6270972;22;43968;-67
2023/01/02 11:16:26;;;;;;;;;;;21.00;54.50;;;;;;6273422;22;43485;-66
2023/01/02 11:18:55;;;;;;;;;;;21.00;54.00;;;;;;6273372;22;43411;-65
2023/01/02 11:21:23;;;;;;;;;;;21.00;54.20;;;;;;6272627;22;43442;-65
2023/01/02 11:23:56;;;;;;;;;;;21.00;54.30;;;;;;6272703;22;43767;-64
2023/01/02 11:26:24;;;;;;;;;;;21.00;54.40;;;;;;6268801;22;43332;-66
2023/01/02 11:28:52;;;;;;;;;;;21.00;54.30;;;;;;6272026;22;43419;-65
2023/01/02 11:31:20;;;;;;;;;;;21.00;54.40;;;;;;6273345;22;43465;-65
2023/01/02 11:33:48;;;;;;;;;;;20.90;54.40;;;;;;6272620;22;43766;-66
2023/01/02 11:36:17;;;;;;;;;;;20.90;54.40;;;;;;6271912;22;43550;-65
2023/01/02 11:38:48;;;;;;;;;;;20.90;54.40;;;;;;6272850;22;43326;-65
2023/01/02 11:44:18;;;;;;;;;;;20.90;54.50;;;;;;6272908;22;43985;-65
2023/01/02 11:46:48;;;;;;;;;;;20.80;54.40;;;;;;6272688;22;43439;-66
2023/01/02 11:49:36;;;;;;;;;;;20.80;54.50;;;;;;6272420;22;43349;-65
2023/01/02 11:52:04;;;;;;;;;;;20.80;54.50;;;;;;6272612;22;43411;-64
2023/01/02 11:54:43;;;;;;;;;;;20.80;54.50;;;;;;6272719;22;44747;-64
2023/01/02 11:57:12;;;;;;;;;;;20.80;54.60;;;;;;6272449;22;43505;-65
2023/01/02 11:59:47;;;;;;;;;;;20.70;54.50;;;;;;6273552;22;43371;-64
2023/01/02 12:02:16;;;;;;;;;;;20.70;54.60;;;;;;6273028;22;43387;-64
2023/01/02 12:04:43;;;;;;;;;;;20.70;54.60;;;;;;6271401;22;44242;-64
2023/01/02 12:07:25;;;;;;;;;;;20.70;54.70;;;;;;6272291;22;43327;-65
2023/01/02 12:10:04;;;;;;;;;;;20.60;54.70;;;;;;6272865;22;43304;-64
2023/01/02 12:12:38;;;;;;;;;;;20.60;54.60;;;;;;6272895;22;43522;-64
2023/01/02 12:15:17;;;;;;;;;;;20.60;54.70;;;;;;6272018;22;44889;-64
2023/01/02 12:17:44;;;;;;;;;;;20.60;54.60;;;;;;6272210;22;43820;-66
2023/01/02 12:20:14;;;;;;;;;;;20.60;54.60;;;;;;6273241;22;43411;-68
2023/01/02 12:22:42;;;;;;;;;;;20.50;54.60;;;;;;6272278;22;43481;-67
2023/01/02 12:25:28;;;;;;;;;;;20.50;54.60;;;;;;6271276;22;44894;-66
2023/01/02 12:28:11;;;;;;;;;;;20.50;55.00;;;;;;6272848;22;43452;-66
2023/01/02 12:30:47;;;;;;;;;;;20.50;54.60;;;;;;6272526;22;43316;-66
2023/01/02 12:33:23;;;;;;;;;;;20.50;55.30;;;;;;6273138;22;43398;-66
2023/01/02 12:36:06;;;;;;;;;;;20.50;54.60;;;;;;6272624;22;44651;-66
2023/01/02 12:38:46;;;;;;;;;;;20.40;54.70;;;;;;6272164;22;43442;-66
2023/01/02 12:41:20;;;;;;;;;;;20.40;54.70;;;;;;6272262;22;43397;-67
2023/01/02 12:44:07;;;;;;;;;;;20.40;54.80;;;;;;6246513;22;43983;-67
2023/01/02 12:46:53;;;;;;;;;;;20.30;54.70;;;;;;6272437;22;44707;-66
2023/01/02 12:49:21;;;;;;;;;;;20.30;54.80;;;;;;6271400;22;43384;-66
2023/01/02 12:52:12;;;;;;;;;;;20.30;54.70;;;;;;6271468;22;43338;-65
2023/01/02 12:54:42;;;;;;;;;;;20.30;54.80;;;;;;6218705;22;43579;-68
2023/01/02 12:57:19;;;;;;;;;;;20.30;55.10;;;;;;6272538;22;43856;-64
2023/01/02 13:00:02;;;;;;;;;;;20.30;54.90;;;;;;6272148;22;43359;-65
2023/01/02 13:02:45;;;;;;;;;;;20.30;54.80;;;;;;6272644;22;43500;-68
2023/01/02 13:05:18;;;;;;;;;;;20.20;54.80;;;;;;6245443;22;43432;-64
2023/01/02 13:07:49;;;;;;;;;;;20.20;55.50;;;;;;6271742;22;43848;-65
2023/01/02 13:10:19;;;;;;;;;;;20.20;54.90;;;;;;6272542;22;43755;-64
2023/01/02 13:12:47;;;;;;;;;;;20.20;54.90;;;;;;6272354;22;43385;-64
2023/01/02 13:15:19;;;;;;;;;;;20.20;55.00;;;;;;6271631;22;43537;-64
2023/01/02 13:17:50;;;;;;;;;;;20.10;54.90;;;;;;6271603;22;43694;-65
2023/01/02 13:20:29;;;;;;;;;;;20.10;54.90;;;;;;6272119;22;43828;-64
2023/01/02 13:23:07;;;;;;;;;;;20.10;54.90;;;;;;6272650;22;43380;-64
2023/01/02 13:25:38;;;;;;;;;;;20.10;54.90;;;;;;6273344;22;43525;-64
2023/01/02 13:28:09;;;;;;;;;;;20.00;54.90;;;;;;6272674;22;44753;-65
2023/01/02 13:30:54;;;;;;;;;;;20.00;54.80;;;;;;6274065;22;43503;-65
2023/01/02 13:33:42;;;;;;;;;;;20.00;54.90;;;;;;6274459;22;43428;-65
2023/01/02 13:36:13;;;;;;;;;;;20.00;54.90;;;;;;6273185;22;43370;-65
2023/01/02 13:38:45;;;;;;;;;;;20.00;54.90;;;;;;6274128;22;45093;-65
2023/01/02 13:41:13;;;;;;;;;;;20.00;54.90;;;;;;6272436;22;43340;-65
2023/01/02 13:43:44;;;;;;;;;;;20.00;54.90;;;;;;6273914;22;43386;-65
2023/01/02 13:46:12;;;;;;;;;;;19.90;54.90;;;;;;6273113;22;43384;-66
2023/01/02 13:49:03;;;;;;;;;;;19.90;54.90;;;;;;6273251;22;44004;-64
2023/01/02 13:51:35;;;;;;;;;;;19.90;55.10;;;;;;6273963;22;43339;-66
2023/01/02 13:54:10;;;;;;;;;;;19.90;55.00;;;;;;6273776;22;43394;-66
2023/01/02 13:57:01;;;;;;;;;;;19.90;55.10;;;;;;6272579;22;43504;-66
2023/01/02 13:59:29;;;;;;;;;;;19.90;55.10;;;;;;6274682;22;43962;-66
2023/01/02 14:02:16;;;;;;;;;;;19.80;55.10;;;;;;6273179;22;43481;-65
2023/01/02 14:04:46;;;;;;;;;;;19.80;55.10;;;;;;6272275;22;43508;-64
2023/01/02 14:07:24;;;;;;;;;;;19.80;55.10;;;;;;6273194;22;43555;-64
2023/01/02 14:10:10;;;;;;;;;;;19.80;55.10;;;;;;6273091;22;45051;-65
2023/01/02 14:12:51;;;;;;;;;;;19.80;55.10;;;;;;6245535;22;44982;-65
2023/01/02 14:15:24;;;;;;;;;;;19.80;55.10;;;;;;6273170;22;43367;-65
2023/01/02 14:18:02;;;;;;;;;;;19.80;55.10;;;;;;6271243;22;43427;-64
2023/01/02 14:20:31;;;;;;;;;;;19.80;55.20;;;;;;6274037;22;44655;-64
2023/01/02 14:23:01;;;;;;;;;;;19.80;55.20;;;;;;6273337;22;43457;-65
2023/01/02 14:25:30;;;;;;;;;;;19.70;55.20;;;;;;6273164;22;43350;-65
2023/01/02 14:28:05;;;;;;;;;;;19.80;55.20;;;;;;6273589;22;43497;-64
2023/01/02 14:30:40;;;;;;;;;;;19.70;55.20;;;;;;6272758;22;44043;-64
2023/01/02 14:33:15;;;;;;;;;;;19.70;55.20;;;;;;6272909;22;43408;-63
2023/01/02 14:35:50;;;;;;;;;;;19.70;55.20;;;;;;6273568;22;43758;-64
2023/01/02 14:38:18;;;;;;;;;;;19.70;55.20;;;;;;6273394;22;43546;-65
2023/01/02 14:40:46;;;;;;;;;;;19.70;55.20;;;;;;6246510;22;43726;-64
2023/01/02 14:43:29;;;;;;;;;;;19.60;55.20;;;;;;6273539;22;43411;-63